sensor_id;sensor_type;location;lat;lon;timestamp;temperature;humidity
7378;DHT22;3730;50.856;12.776;2023-03-21T00:02:16;8.70;99.90
7378;DHT22;3730;50.856;12.776;2023-03-21T00:04:42;8.60;99.90
7378;DHT22;3730;50.856;12.776;2023-03-21T00:07:08;9.20;99.90
7378;DHT22;3730;50.856;12.776;2023-03-21T00:09:33;8.50;99.90
7378;DHT22;3730;50.856;12.776;2023-03-21T00:11:59;8.50;99.90
7378;DHT22;3730;50.856;12.776;2023-03-21T00:14:26;8.60;99.90
7378;DHT22;3730;50.856;12.776;2023-03-21T00:16:55;8.60;99.90
7378;DHT22;3730;50.856;12.776;2023-03-21T00:19:21;8.80;99.90
7378;DHT22;3730;50.856;12.776;2023-03-21T00:21:49;9.50;99.90
7378;DHT22;3730;50.856;12.776;2023-03-21T00:24:16;8.60;99.90
7378;DHT22;3730;50.856;12.776;2023-03-21T00:26:42;8.60;99.90
7378;DHT22;3730;50.856;12.776;2023-03-21T00:29:08;10.10;99.90
7378;DHT22;3730;50.856;12.776;2023-03-21T00:31:34;8.50;99.90
7378;DHT22;3730;50.856;12.776;2023-03-21T00:34:00;8.60;99.90
7378;DHT22;3730;50.856;12.776;2023-03-21T00:36:26;8.50;99.90
7378;DHT22;3730;50.856;12.776;2023-03-21T00:38:52;8.40;99.90
7378;DHT22;3730;50.856;12.776;2023-03-21T00:41:18;9.20;99.90
7378;DHT22;3730;50.856;12.776;2023-03-21T00:43:43;9.30;99.90
7378;DHT22;3730;50.856;12.776;2023-03-21T00:46:10;8.30;99.90
7378;DHT22;3730;50.856;12.776;2023-03-21T00:48:36;9.60;99.90
7378;DHT22;3730;50.856;12.776;2023-03-21T00:51:09;8.30;99.90
7378;DHT22;3730;50.856;12.776;2023-03-21T00:53:36;8.30;99.90
7378;DHT22;3730;50.856;12.776;2023-03-21T00:56:02;8.20;99.90
7378;DHT22;3730;50.856;12.776;2023-03-21T00:58:28;8.20;99.90
7378;DHT22;3730;50.856;12.776;2023-03-21T01:00:53;8.30;99.90
7378;DHT22;3730;50.856;12.776;2023-03-21T01:03:19;8.20;99.90
7378;DHT22;3730;50.856;12.776;2023-03-21T01:05:47;8.20;99.90
7378;DHT22;3730;50.856;12.776;2023-03-21T01:08:37;8.20;99.90
7378;DHT22;3730;50.856;12.776;2023-03-21T01:11:06;8.20;99.90
7378;DHT22;3730;50.856;12.776;2023-03-21T01:13:32;8.20;99.90
7378;DHT22;3730;50.856;12.776;2023-03-21T01:15:58;8.20;99.90
7378;DHT22;3730;50.856;12.776;2023-03-21T01:18:28;8.10;99.90
7378;DHT22;3730;50.856;12.776;2023-03-21T01:20:58;8.10;99.90
7378;DHT22;3730;50.856;12.776;2023-03-21T01:23:26;8.20;99.90
7378;DHT22;3730;50.856;12.776;2023-03-21T01:25:54;8.40;99.90
7378;DHT22;3730;50.856;12.776;2023-03-21T01:28:21;9.10;99.90
7378;DHT22;3730;50.856;12.776;2023-03-21T01:30:50;8.30;99.90
7378;DHT22;3730;50.856;12.776;2023-03-21T01:33:17;8.10;99.90
7378;DHT22;3730;50.856;12.776;2023-03-21T01:35:42;8.10;99.90
7378;DHT22;3730;50.856;12.776;2023-03-21T01:38:08;9.20;99.90
7378;DHT22;3730;50.856;12.776;2023-03-21T01:40:37;9.30;99.90
7378;DHT22;3730;50.856;12.776;2023-03-21T01:43:05;8.10;99.90
7378;DHT22;3730;50.856;12.776;2023-03-21T01:48:23;8.10;99.90
7378;DHT22;3730;50.856;12.776;2023-03-21T01:50:50;8.10;99.90
7378;DHT22;3730;50.856;12.776;2023-03-21T01:53:19;8.10;99.90
7378;DHT22;3730;50.856;12.776;2023-03-21T01:55:46;9.00;99.90
7378;DHT22;3730;50.856;12.776;2023-03-21T01:58:15;8.00;99.90
7378;DHT22;3730;50.856;12.776;2023-03-21T02:00:43;8.00;99.90
7378;DHT22;3730;50.856;12.776;2023-03-21T02:03:09;8.00;99.90
7378;DHT22;3730;50.856;12.776;2023-03-21T02:05:50;8.00;99.90
7378;DHT22;3730;50.856;12.776;2023-03-21T02:08:16;7.90;99.90
7378;DHT22;3730;50.856;12.776;2023-03-21T02:10:45;9.20;99.90
7378;DHT22;3730;50.856;12.776;2023-03-21T02:13:12;7.90;99.90
7378;DHT22;3730;50.856;12.776;2023-03-21T02:15:42;10.40;99.90
7378;DHT22;3730;50.856;12.776;2023-03-21T02:24:32;7.90;99.90
7378;DHT22;3730;50.856;12.776;2023-03-21T02:35:24;8.00;99.90
7378;DHT22;3730;50.856;12.776;2023-03-21T02:38:03;8.00;99.90
7378;DHT22;3730;50.856;12.776;2023-03-21T02:40:39;7.90;99.90
7378;DHT22;3730;50.856;12.776;2023-03-21T02:46:25;7.80;99.90
7378;DHT22;3730;50.856;12.776;2023-03-21T02:49:02;9.50;99.90
7378;DHT22;3730;50.856;12.776;2023-03-21T02:51:30;8.00;99.90
7378;DHT22;3730;50.856;12.776;2023-03-21T02:54:03;7.90;99.90
7378;DHT22;3730;50.856;12.776;2023-03-21T02:56:30;7.90;99.90
7378;DHT22;3730;50.856;12.776;2023-03-21T02:58:58;7.90;99.90
7378;DHT22;3730;50.856;12.776;2023-03-21T03:01:24;8.20;99.90
7378;DHT22;3730;50.856;12.776;2023-03-21T03:03:50;8.10;99.90
7378;DHT22;3730;50.856;12.776;2023-03-21T03:06:26;7.90;99.90
7378;DHT22;3730;50.856;12.776;2023-03-21T03:11:43;7.70;99.90
7378;DHT22;3730;50.856;12.776;2023-03-21T03:17:08;7.60;99.90
7378;DHT22;3730;50.856;12.776;2023-03-21T03:22:45;7.60;99.90
7378;DHT22;3730;50.856;12.776;2023-03-21T03:25:15;7.50;99.90
7378;DHT22;3730;50.856;12.776;2023-03-21T03:27:46;7.50;99.90
7378;DHT22;3730;50.856;12.776;2023-03-21T03:30:14;7.50;99.90
7378;DHT22;3730;50.856;12.776;2023-03-21T03:32:41;7.90;99.90
7378;DHT22;3730;50.856;12.776;2023-03-21T03:35:10;7.60;99.90
7378;DHT22;3730;50.856;12.776;2023-03-21T03:37:39;8.50;99.90
7378;DHT22;3730;50.856;12.776;2023-03-21T03:40:07;7.50;99.90
7378;DHT22;3730;50.856;12.776;2023-03-21T03:42:46;7.40;99.90
7378;DHT22;3730;50.856;12.776;2023-03-21T03:45:14;7.40;99.90
7378;DHT22;3730;50.856;12.776;2023-03-21T03:47:48;7.50;99.90
7378;DHT22;3730;50.856;12.776;2023-03-21T03:53:07;7.50;99.90
7378;DHT22;3730;50.856;12.776;2023-03-21T03:55:37;7.50;99.90
7378;DHT22;3730;50.856;12.776;2023-03-21T03:58:03;7.40;99.90
7378;DHT22;3730;50.856;12.776;2023-03-21T04:00:31;7.40;99.90
7378;DHT22;3730;50.856;12.776;2023-03-21T04:02:57;8.10;99.90
7378;DHT22;3730;50.856;12.776;2023-03-21T04:05:23;9.50;99.90
7378;DHT22;3730;50.856;12.776;2023-03-21T04:07:49;8.30;99.90
7378;DHT22;3730;50.856;12.776;2023-03-21T04:10:15;8.40;99.90
7378;DHT22;3730;50.856;12.776;2023-03-21T04:12:41;7.40;99.90
7378;DHT22;3730;50.856;12.776;2023-03-21T04:15:08;9.00;99.90
7378;DHT22;3730;50.856;12.776;2023-03-21T04:17:34;7.40;99.90
7378;DHT22;3730;50.856;12.776;2023-03-21T04:20:00;8.80;99.90
7378;DHT22;3730;50.856;12.776;2023-03-21T04:22:25;7.30;99.90
7378;DHT22;3730;50.856;12.776;2023-03-21T04:24:51;7.20;99.90
7378;DHT22;3730;50.856;12.776;2023-03-21T04:27:17;9.00;99.90
7378;DHT22;3730;50.856;12.776;2023-03-21T04:29:43;7.70;99.90
7378;DHT22;3730;50.856;12.776;2023-03-21T04:32:09;7.10;99.90
7378;DHT22;3730;50.856;12.776;2023-03-21T04:34:41;8.00;99.90
7378;DHT22;3730;50.856;12.776;2023-03-21T04:37:09;7.10;99.90
7378;DHT22;3730;50.856;12.776;2023-03-21T04:39:36;7.50;99.90
7378;DHT22;3730;50.856;12.776;2023-03-21T04:42:03;7.00;99.90
7378;DHT22;3730;50.856;12.776;2023-03-21T04:44:29;7.00;99.90
7378;DHT22;3730;50.856;12.776;2023-03-21T04:46:55;6.90;99.90
7378;DHT22;3730;50.856;12.776;2023-03-21T04:49:20;7.60;99.90
7378;DHT22;3730;50.856;12.776;2023-03-21T04:51:46;7.00;99.90
7378;DHT22;3730;50.856;12.776;2023-03-21T04:54:12;7.00;99.90
7378;DHT22;3730;50.856;12.776;2023-03-21T04:56:38;7.70;99.90
7378;DHT22;3730;50.856;12.776;2023-03-21T04:59:09;7.00;99.90
7378;DHT22;3730;50.856;12.776;2023-03-21T05:01:35;8.50;99.90
7378;DHT22;3730;50.856;12.776;2023-03-21T05:04:03;7.40;99.90
7378;DHT22;3730;50.856;12.776;2023-03-21T05:06:30;7.80;99.90
7378;DHT22;3730;50.856;12.776;2023-03-21T05:08:57;7.40;99.90
7378;DHT22;3730;50.856;12.776;2023-03-21T05:11:29;7.00;99.90
7378;DHT22;3730;50.856;12.776;2023-03-21T05:13:55;7.20;99.90
7378;DHT22;3730;50.856;12.776;2023-03-21T05:16:21;7.10;99.90
7378;DHT22;3730;50.856;12.776;2023-03-21T05:18:51;8.00;99.90
7378;DHT22;3730;50.856;12.776;2023-03-21T05:21:18;7.00;99.90
7378;DHT22;3730;50.856;12.776;2023-03-21T05:23:43;6.90;99.90
7378;DHT22;3730;50.856;12.776;2023-03-21T05:26:09;7.00;99.90
7378;DHT22;3730;50.856;12.776;2023-03-21T05:28:35;7.00;99.90
7378;DHT22;3730;50.856;12.776;2023-03-21T05:31:05;6.90;99.90
7378;DHT22;3730;50.856;12.776;2023-03-21T05:33:30;7.00;99.90
7378;DHT22;3730;50.856;12.776;2023-03-21T05:35:56;7.00;99.90
7378;DHT22;3730;50.856;12.776;2023-03-21T05:38:22;9.10;99.90
7378;DHT22;3730;50.856;12.776;2023-03-21T05:40:48;7.20;99.90
7378;DHT22;3730;50.856;12.776;2023-03-21T05:43:14;7.10;99.90
7378;DHT22;3730;50.856;12.776;2023-03-21T05:45:40;7.00;99.90
7378;DHT22;3730;50.856;12.776;2023-03-21T05:48:06;7.00;99.90
7378;DHT22;3730;50.856;12.776;2023-03-21T05:50:32;6.90;99.90
7378;DHT22;3730;50.856;12.776;2023-03-21T05:52:58;8.90;99.90
7378;DHT22;3730;50.856;12.776;2023-03-21T05:55:23;7.00;99.90
7378;DHT22;3730;50.856;12.776;2023-03-21T05:57:49;7.00;99.90
7378;DHT22;3730;50.856;12.776;2023-03-21T06:00:15;7.60;99.90
7378;DHT22;3730;50.856;12.776;2023-03-21T06:02:41;7.10;99.90
7378;DHT22;3730;50.856;12.776;2023-03-21T06:05:07;7.90;99.90
7378;DHT22;3730;50.856;12.776;2023-03-21T06:07:33;7.10;99.90
7378;DHT22;3730;50.856;12.776;2023-03-21T06:09:59;7.20;99.90
7378;DHT22;3730;50.856;12.776;2023-03-21T06:12:25;7.20;99.90
7378;DHT22;3730;50.856;12.776;2023-03-21T06:14:51;7.30;99.90
7378;DHT22;3730;50.856;12.776;2023-03-21T06:17:16;9.30;99.90
7378;DHT22;3730;50.856;12.776;2023-03-21T06:19:42;7.90;99.90
7378;DHT22;3730;50.856;12.776;2023-03-21T06:22:08;7.30;99.90
7378;DHT22;3730;50.856;12.776;2023-03-21T06:24:33;7.30;99.90
7378;DHT22;3730;50.856;12.776;2023-03-21T06:26:59;8.00;99.90
7378;DHT22;3730;50.856;12.776;2023-03-21T06:29:24;8.40;99.90
7378;DHT22;3730;50.856;12.776;2023-03-21T06:31:50;7.30;99.90
7378;DHT22;3730;50.856;12.776;2023-03-21T06:34:16;7.70;99.90
7378;DHT22;3730;50.856;12.776;2023-03-21T06:36:41;7.20;99.90
7378;DHT22;3730;50.856;12.776;2023-03-21T06:39:09;7.70;99.90
7378;DHT22;3730;50.856;12.776;2023-03-21T06:41:35;7.30;99.90
7378;DHT22;3730;50.856;12.776;2023-03-21T06:44:01;7.30;99.90
7378;DHT22;3730;50.856;12.776;2023-03-21T06:46:27;7.40;99.90
7378;DHT22;3730;50.856;12.776;2023-03-21T06:48:52;8.30;99.90
7378;DHT22;3730;50.856;12.776;2023-03-21T06:51:18;7.40;99.90
7378;DHT22;3730;50.856;12.776;2023-03-21T06:53:44;7.40;99.90
7378;DHT22;3730;50.856;12.776;2023-03-21T06:56:12;8.90;99.90
7378;DHT22;3730;50.856;12.776;2023-03-21T06:58:39;7.50;99.90
7378;DHT22;3730;50.856;12.776;2023-03-21T07:01:05;7.50;99.90
7378;DHT22;3730;50.856;12.776;2023-03-21T07:03:31;7.50;99.90
7378;DHT22;3730;50.856;12.776;2023-03-21T07:05:57;7.60;99.90
7378;DHT22;3730;50.856;12.776;2023-03-21T07:08:23;7.60;99.90
7378;DHT22;3730;50.856;12.776;2023-03-21T07:10:49;7.60;99.90
7378;DHT22;3730;50.856;12.776;2023-03-21T07:13:15;9.20;99.90
7378;DHT22;3730;50.856;12.776;2023-03-21T07:15:40;7.70;99.90
7378;DHT22;3730;50.856;12.776;2023-03-21T07:18:08;8.20;99.90
7378;DHT22;3730;50.856;12.776;2023-03-21T07:20:34;7.80;99.90
7378;DHT22;3730;50.856;12.776;2023-03-21T07:23:02;8.20;99.90
7378;DHT22;3730;50.856;12.776;2023-03-21T07:25:28;7.80;99.90
7378;DHT22;3730;50.856;12.776;2023-03-21T07:27:54;7.80;99.90
7378;DHT22;3730;50.856;12.776;2023-03-21T07:30:20;9.00;99.90
7378;DHT22;3730;50.856;12.776;2023-03-21T07:32:46;7.90;99.90
7378;DHT22;3730;50.856;12.776;2023-03-21T07:35:14;7.90;99.90
7378;DHT22;3730;50.856;12.776;2023-03-21T07:37:40;8.30;99.90
7378;DHT22;3730;50.856;12.776;2023-03-21T07:40:07;8.00;99.90
7378;DHT22;3730;50.856;12.776;2023-03-21T07:42:35;8.10;99.90
7378;DHT22;3730;50.856;12.776;2023-03-21T07:45:01;8.10;99.90
7378;DHT22;3730;50.856;12.776;2023-03-21T07:47:29;8.20;99.90
7378;DHT22;3730;50.856;12.776;2023-03-21T07:49:55;10.50;99.90
7378;DHT22;3730;50.856;12.776;2023-03-21T07:52:21;8.30;99.90
7378;DHT22;3730;50.856;12.776;2023-03-21T07:54:46;8.30;99.90
7378;DHT22;3730;50.856;12.776;2023-03-21T07:57:12;8.30;99.90
7378;DHT22;3730;50.856;12.776;2023-03-21T07:59:37;8.30;99.90
7378;DHT22;3730;50.856;12.776;2023-03-21T08:02:03;8.30;99.90
7378;DHT22;3730;50.856;12.776;2023-03-21T08:04:29;8.40;99.90
7378;DHT22;3730;50.856;12.776;2023-03-21T08:06:54;8.40;99.90
7378;DHT22;3730;50.856;12.776;2023-03-21T08:09:21;8.50;99.90
7378;DHT22;3730;50.856;12.776;2023-03-21T08:11:47;8.50;99.90
7378;DHT22;3730;50.856;12.776;2023-03-21T08:14:13;8.50;99.90
7378;DHT22;3730;50.856;12.776;2023-03-21T08:16:38;8.60;99.90
7378;DHT22;3730;50.856;12.776;2023-03-21T08:19:04;8.80;99.90
7378;DHT22;3730;50.856;12.776;2023-03-21T08:21:29;8.70;99.90
7378;DHT22;3730;50.856;12.776;2023-03-21T08:23:55;8.70;99.90
7378;DHT22;3730;50.856;12.776;2023-03-21T08:26:21;8.70;99.90
7378;DHT22;3730;50.856;12.776;2023-03-21T08:28:49;8.90;99.90
7378;DHT22;3730;50.856;12.776;2023-03-21T08:31:15;8.70;99.90
7378;DHT22;3730;50.856;12.776;2023-03-21T08:33:42;8.70;99.90
7378;DHT22;3730;50.856;12.776;2023-03-21T08:36:09;10.30;99.90
7378;DHT22;3730;50.856;12.776;2023-03-21T08:38:35;8.70;99.90
7378;DHT22;3730;50.856;12.776;2023-03-21T08:43:28;9.40;99.90
7378;DHT22;3730;50.856;12.776;2023-03-21T08:45:54;8.90;99.90
7378;DHT22;3730;50.856;12.776;2023-03-21T08:48:20;9.70;99.90
7378;DHT22;3730;50.856;12.776;2023-03-21T08:50:46;9.20;99.90
7378;DHT22;3730;50.856;12.776;2023-03-21T08:53:11;9.20;99.90
7378;DHT22;3730;50.856;12.776;2023-03-21T08:55:37;9.30;99.90
7378;DHT22;3730;50.856;12.776;2023-03-21T08:58:03;9.30;99.90
7378;DHT22;3730;50.856;12.776;2023-03-21T09:00:29;9.40;99.90
7378;DHT22;3730;50.856;12.776;2023-03-21T09:02:55;9.40;99.90
7378;DHT22;3730;50.856;12.776;2023-03-21T09:05:23;10.20;99.90
7378;DHT22;3730;50.856;12.776;2023-03-21T09:07:51;9.80;99.90
7378;DHT22;3730;50.856;12.776;2023-03-21T09:10:19;9.60;99.90
7378;DHT22;3730;50.856;12.776;2023-03-21T09:12:50;9.60;99.90
7378;DHT22;3730;50.856;12.776;2023-03-21T09:15:16;9.80;99.90
7378;DHT22;3730;50.856;12.776;2023-03-21T09:17:44;9.80;99.90
7378;DHT22;3730;50.856;12.776;2023-03-21T09:20:15;9.80;99.90
7378;DHT22;3730;50.856;12.776;2023-03-21T09:22:44;9.90;99.90
7378;DHT22;3730;50.856;12.776;2023-03-21T09:25:10;9.90;99.90
7378;DHT22;3730;50.856;12.776;2023-03-21T09:27:37;10.00;99.90
7378;DHT22;3730;50.856;12.776;2023-03-21T09:30:04;10.10;99.90
7378;DHT22;3730;50.856;12.776;2023-03-21T09:32:32;10.20;99.90
7378;DHT22;3730;50.856;12.776;2023-03-21T09:34:58;10.30;99.90
7378;DHT22;3730;50.856;12.776;2023-03-21T09:37:24;10.40;99.90
7378;DHT22;3730;50.856;12.776;2023-03-21T09:39:49;10.50;99.90
7378;DHT22;3730;50.856;12.776;2023-03-21T09:42:39;10.50;99.90
7378;DHT22;3730;50.856;12.776;2023-03-21T09:45:20;10.50;99.90
7378;DHT22;3730;50.856;12.776;2023-03-21T09:47:48;10.60;99.90
7378;DHT22;3730;50.856;12.776;2023-03-21T09:50:23;10.60;99.90
7378;DHT22;3730;50.856;12.776;2023-03-21T09:52:56;10.60;99.90
7378;DHT22;3730;50.856;12.776;2023-03-21T09:55:25;10.70;99.90
7378;DHT22;3730;50.856;12.776;2023-03-21T10:16:30;10.70;99.90
7378;DHT22;3730;50.856;12.776;2023-03-21T10:18:59;11.80;99.90
7378;DHT22;3730;50.856;12.776;2023-03-21T10:23:55;11.50;99.90
7378;DHT22;3730;50.856;12.776;2023-03-21T10:26:23;11.60;99.90
7378;DHT22;3730;50.856;12.776;2023-03-21T10:56:11;12.10;99.90
7378;DHT22;3730;50.856;12.776;2023-03-21T11:16:20;12.50;99.90
7378;DHT22;3730;50.856;12.776;2023-03-21T11:18:50;13.10;91.70
7378;DHT22;3730;50.856;12.776;2023-03-21T11:21:16;13.20;89.40
7378;DHT22;3730;50.856;12.776;2023-03-21T11:27:06;13.40;87.20
7378;DHT22;3730;50.856;12.776;2023-03-21T11:29:34;13.40;80.80
7378;DHT22;3730;50.856;12.776;2023-03-21T11:32:15;13.50;79.60
7378;DHT22;3730;50.856;12.776;2023-03-21T11:34:46;13.30;81.20
7378;DHT22;3730;50.856;12.776;2023-03-21T11:39:54;13.60;81.20
7378;DHT22;3730;50.856;12.776;2023-03-21T11:42:31;13.60;79.10
7378;DHT22;3730;50.856;12.776;2023-03-21T11:45:09;13.90;79.60
7378;DHT22;3730;50.856;12.776;2023-03-21T11:47:36;13.90;79.70
7378;DHT22;3730;50.856;12.776;2023-03-21T11:50:04;14.00;74.40
7378;DHT22;3730;50.856;12.776;2023-03-21T11:52:40;14.00;74.50
7378;DHT22;3730;50.856;12.776;2023-03-21T11:55:30;14.10;73.00
7378;DHT22;3730;50.856;12.776;2023-03-21T12:00:53;14.00;71.40
7378;DHT22;3730;50.856;12.776;2023-03-21T12:27:34;14.10;73.50
7378;DHT22;3730;50.856;12.776;2023-03-21T12:35:47;14.60;57.20
7378;DHT22;3730;50.856;12.776;2023-03-21T12:38:30;14.70;57.70
7378;DHT22;3730;50.856;12.776;2023-03-21T12:46:43;14.70;56.00
7378;DHT22;3730;50.856;12.776;2023-03-21T12:49:17;14.70;57.00
7378;DHT22;3730;50.856;12.776;2023-03-21T12:51:48;14.80;56.00
7378;DHT22;3730;50.856;12.776;2023-03-21T12:54:52;14.80;55.10
7378;DHT22;3730;50.856;12.776;2023-03-21T12:57:27;14.80;55.50
7378;DHT22;3730;50.856;12.776;2023-03-21T13:02:50;14.80;53.60
7378;DHT22;3730;50.856;12.776;2023-03-21T13:08:24;14.70;54.00
7378;DHT22;3730;50.856;12.776;2023-03-21T13:10:54;14.70;53.80
7378;DHT22;3730;50.856;12.776;2023-03-21T13:13:40;14.70;52.70
7378;DHT22;3730;50.856;12.776;2023-03-21T13:26:55;14.60;53.40
7378;DHT22;3730;50.856;12.776;2023-03-21T13:31:52;14.50;52.40
7378;DHT22;3730;50.856;12.776;2023-03-21T13:34:23;14.70;54.40
7378;DHT22;3730;50.856;12.776;2023-03-21T13:36:50;14.80;55.20
7378;DHT22;3730;50.856;12.776;2023-03-21T13:39:25;14.80;53.30
7378;DHT22;3730;50.856;12.776;2023-03-21T13:41:52;14.80;51.20
7378;DHT22;3730;50.856;12.776;2023-03-21T13:44:42;14.90;52.30
7378;DHT22;3730;50.856;12.776;2023-03-21T13:47:34;14.90;51.90
7378;DHT22;3730;50.856;12.776;2023-03-21T13:55:59;15.70;48.30
7378;DHT22;3730;50.856;12.776;2023-03-21T13:58:49;14.90;48.80
7378;DHT22;3730;50.856;12.776;2023-03-21T14:04:02;14.80;49.10
7378;DHT22;3730;50.856;12.776;2023-03-21T14:09:03;14.80;49.70
7378;DHT22;3730;50.856;12.776;2023-03-21T14:11:30;14.80;48.40
7378;DHT22;3730;50.856;12.776;2023-03-21T14:13:58;14.80;47.50
7378;DHT22;3730;50.856;12.776;2023-03-21T14:16:26;14.80;48.50
7378;DHT22;3730;50.856;12.776;2023-03-21T14:19:02;14.80;48.90
7378;DHT22;3730;50.856;12.776;2023-03-21T14:21:33;14.90;48.70
7378;DHT22;3730;50.856;12.776;2023-03-21T14:24:05;14.90;48.70
7378;DHT22;3730;50.856;12.776;2023-03-21T14:26:39;15.00;48.50
7378;DHT22;3730;50.856;12.776;2023-03-21T14:29:07;15.00;49.20
7378;DHT22;3730;50.856;12.776;2023-03-21T14:31:34;15.00;49.80
7378;DHT22;3730;50.856;12.776;2023-03-21T14:34:01;15.00;49.10
7378;DHT22;3730;50.856;12.776;2023-03-21T14:36:30;15.00;49.10
7378;DHT22;3730;50.856;12.776;2023-03-21T14:39:12;15.00;48.50
7378;DHT22;3730;50.856;12.776;2023-03-21T14:41:47;14.90;48.40
7378;DHT22;3730;50.856;12.776;2023-03-21T14:44:15;14.90;48.40
7378;DHT22;3730;50.856;12.776;2023-03-21T14:46:42;15.10;48.70
7378;DHT22;3730;50.856;12.776;2023-03-21T14:49:24;15.00;49.20
7378;DHT22;3730;50.856;12.776;2023-03-21T14:51:52;15.00;47.70
7378;DHT22;3730;50.856;12.776;2023-03-21T14:54:18;15.00;48.60
7378;DHT22;3730;50.856;12.776;2023-03-21T14:56:49;15.10;49.00
7378;DHT22;3730;50.856;12.776;2023-03-21T14:59:19;15.10;48.90
7378;DHT22;3730;50.856;12.776;2023-03-21T15:01:46;15.10;47.50
7378;DHT22;3730;50.856;12.776;2023-03-21T15:04:14;15.10;48.50
7378;DHT22;3730;50.856;12.776;2023-03-21T15:06:53;15.20;49.30
7378;DHT22;3730;50.856;12.776;2023-03-21T15:09:21;15.20;48.60
7378;DHT22;3730;50.856;12.776;2023-03-21T15:11:50;15.10;47.70
7378;DHT22;3730;50.856;12.776;2023-03-21T15:14:18;15.10;48.60
7378;DHT22;3730;50.856;12.776;2023-03-21T15:16:45;15.10;48.70
7378;DHT22;3730;50.856;12.776;2023-03-21T15:19:16;15.00;47.90
7378;DHT22;3730;50.856;12.776;2023-03-21T15:21:49;15.10;49.30
7378;DHT22;3730;50.856;12.776;2023-03-21T15:24:32;15.00;49.30
7378;DHT22;3730;50.856;12.776;2023-03-21T15:27:04;15.00;48.70
7378;DHT22;3730;50.856;12.776;2023-03-21T15:29:32;15.00;48.90
7378;DHT22;3730;50.856;12.776;2023-03-21T15:31:58;14.90;49.70
7378;DHT22;3730;50.856;12.776;2023-03-21T15:34:29;14.90;50.40
7378;DHT22;3730;50.856;12.776;2023-03-21T15:37:03;14.90;51.40
7378;DHT22;3730;50.856;12.776;2023-03-21T15:39:29;14.90;51.50
7378;DHT22;3730;50.856;12.776;2023-03-21T15:42:23;14.90;51.80
7378;DHT22;3730;50.856;12.776;2023-03-21T15:44:52;14.90;51.30
7378;DHT22;3730;50.856;12.776;2023-03-21T15:47:37;14.80;51.30
7378;DHT22;3730;50.856;12.776;2023-03-21T15:50:07;14.80;51.50
7378;DHT22;3730;50.856;12.776;2023-03-21T15:52:35;14.80;52.30
7378;DHT22;3730;50.856;12.776;2023-03-21T15:55:01;14.80;52.80
7378;DHT22;3730;50.856;12.776;2023-03-21T15:57:31;14.80;52.90
7378;DHT22;3730;50.856;12.776;2023-03-21T16:00:20;14.80;53.60
7378;DHT22;3730;50.856;12.776;2023-03-21T16:02:47;14.80;53.30
7378;DHT22;3730;50.856;12.776;2023-03-21T16:05:31;14.80;53.80
7378;DHT22;3730;50.856;12.776;2023-03-21T16:08:05;14.80;54.30
7378;DHT22;3730;50.856;12.776;2023-03-21T16:10:41;14.80;54.60
7378;DHT22;3730;50.856;12.776;2023-03-21T16:13:10;14.80;54.60
7378;DHT22;3730;50.856;12.776;2023-03-21T16:15:38;14.70;54.90
7378;DHT22;3730;50.856;12.776;2023-03-21T16:18:05;14.70;55.30
7378;DHT22;3730;50.856;12.776;2023-03-21T16:20:41;14.70;55.30
7378;DHT22;3730;50.856;12.776;2023-03-21T16:23:12;14.60;56.60
7378;DHT22;3730;50.856;12.776;2023-03-21T16:25:38;14.60;57.50
7378;DHT22;3730;50.856;12.776;2023-03-21T16:28:11;14.60;58.30
7378;DHT22;3730;50.856;12.776;2023-03-21T16:30:38;14.50;58.10
7378;DHT22;3730;50.856;12.776;2023-03-21T16:33:03;14.40;58.90
7378;DHT22;3730;50.856;12.776;2023-03-21T16:35:29;14.40;59.90
7378;DHT22;3730;50.856;12.776;2023-03-21T16:37:54;14.40;61.30
7378;DHT22;3730;50.856;12.776;2023-03-21T16:40:28;14.50;60.70
7378;DHT22;3730;50.856;12.776;2023-03-21T16:42:54;14.40;61.40
7378;DHT22;3730;50.856;12.776;2023-03-21T16:45:19;14.40;62.00
7378;DHT22;3730;50.856;12.776;2023-03-21T16:47:45;14.40;62.60
7378;DHT22;3730;50.856;12.776;2023-03-21T16:50:35;14.70;63.30
7378;DHT22;3730;50.856;12.776;2023-03-21T16:53:02;14.40;63.40
7378;DHT22;3730;50.856;12.776;2023-03-21T16:55:28;14.40;64.10
7378;DHT22;3730;50.856;12.776;2023-03-21T16:57:54;14.40;65.00
7378;DHT22;3730;50.856;12.776;2023-03-21T17:00:24;14.30;66.30
7378;DHT22;3730;50.856;12.776;2023-03-21T17:02:52;14.20;66.20
7378;DHT22;3730;50.856;12.776;2023-03-21T17:05:23;14.20;66.00
7378;DHT22;3730;50.856;12.776;2023-03-21T17:07:50;14.20;66.10
7378;DHT22;3730;50.856;12.776;2023-03-21T17:10:20;14.10;66.60
7378;DHT22;3730;50.856;12.776;2023-03-21T17:12:46;14.10;65.70
7378;DHT22;3730;50.856;12.776;2023-03-21T17:15:13;14.10;66.00
7378;DHT22;3730;50.856;12.776;2023-03-21T17:17:39;14.00;65.60
7378;DHT22;3730;50.856;12.776;2023-03-21T17:20:23;14.00;64.80
7378;DHT22;3730;50.856;12.776;2023-03-21T17:22:50;14.00;65.30
7378;DHT22;3730;50.856;12.776;2023-03-21T17:25:16;13.90;65.20
7378;DHT22;3730;50.856;12.776;2023-03-21T17:27:42;13.90;65.10
7378;DHT22;3730;50.856;12.776;2023-03-21T17:32:41;13.90;66.10
7378;DHT22;3730;50.856;12.776;2023-03-21T17:35:07;13.80;65.90
7378;DHT22;3730;50.856;12.776;2023-03-21T17:37:32;13.80;66.50
7378;DHT22;3730;50.856;12.776;2023-03-21T17:39:58;13.70;67.00
7378;DHT22;3730;50.856;12.776;2023-03-21T17:42:24;13.70;67.40
7378;DHT22;3730;50.856;12.776;2023-03-21T17:44:50;13.60;68.00
7378;DHT22;3730;50.856;12.776;2023-03-21T17:47:16;13.60;68.10
7378;DHT22;3730;50.856;12.776;2023-03-21T18:14:03;13.60;68.20
7378;DHT22;3730;50.856;12.776;2023-03-21T18:16:29;13.20;75.40
7378;DHT22;3730;50.856;12.776;2023-03-21T18:18:55;13.20;76.70
7378;DHT22;3730;50.856;12.776;2023-03-21T18:21:22;13.20;77.50
7378;DHT22;3730;50.856;12.776;2023-03-21T18:23:48;13.20;77.90
7378;DHT22;3730;50.856;12.776;2023-03-21T18:26:16;13.20;78.10
7378;DHT22;3730;50.856;12.776;2023-03-21T18:28:43;13.10;78.80
7378;DHT22;3730;50.856;12.776;2023-03-21T18:31:13;13.10;79.40
7378;DHT22;3730;50.856;12.776;2023-03-21T18:33:40;13.10;79.90
7378;DHT22;3730;50.856;12.776;2023-03-21T18:36:07;13.00;80.60
7378;DHT22;3730;50.856;12.776;2023-03-21T18:38:34;13.00;81.50
7378;DHT22;3730;50.856;12.776;2023-03-21T18:41:00;13.00;82.00
7378;DHT22;3730;50.856;12.776;2023-03-21T18:43:26;13.60;83.30
7378;DHT22;3730;50.856;12.776;2023-03-21T18:45:51;12.90;82.30
7378;DHT22;3730;50.856;12.776;2023-03-21T18:48:17;12.80;82.40
7378;DHT22;3730;50.856;12.776;2023-03-21T18:50:43;12.80;81.40
7378;DHT22;3730;50.856;12.776;2023-03-21T18:53:08;12.80;82.30
7378;DHT22;3730;50.856;12.776;2023-03-21T18:55:34;12.70;82.30
7378;DHT22;3730;50.856;12.776;2023-03-21T18:58:00;12.70;81.50
7378;DHT22;3730;50.856;12.776;2023-03-21T19:00:26;12.70;82.00
7378;DHT22;3730;50.856;12.776;2023-03-21T19:02:53;12.70;82.90
7378;DHT22;3730;50.856;12.776;2023-03-21T19:05:22;12.70;82.30
7378;DHT22;3730;50.856;12.776;2023-03-21T19:07:51;12.70;81.00
7378;DHT22;3730;50.856;12.776;2023-03-21T19:10:18;12.60;81.70
7378;DHT22;3730;50.856;12.776;2023-03-21T19:12:46;12.50;82.50
7378;DHT22;3730;50.856;12.776;2023-03-21T19:15:12;12.50;82.90
7378;DHT22;3730;50.856;12.776;2023-03-21T19:17:37;12.50;82.30
7378;DHT22;3730;50.856;12.776;2023-03-21T19:20:04;12.50;81.60
7378;DHT22;3730;50.856;12.776;2023-03-21T19:22:30;12.50;82.00
7378;DHT22;3730;50.856;12.776;2023-03-21T19:24:56;12.50;82.40
7378;DHT22;3730;50.856;12.776;2023-03-21T19:27:21;13.30;83.30